Orlando International Airport

KMCO | MCO

Orlando , Florida , United States

Sunday, June 7th, 2020 | 02:01

Weather

KMCO 070553Z 08004KT 10SM FEW022 SCT110 OVC250 23/22 A2996 RMK AO2 SLP144 60051 T02330222 10267 20228 58008 $

Charts

44 Available

Gates

128 Available

Runways

4 Available

Active ATC

Events -Coming Soon-

1 Events Coming Up Soon

Next event:
KMCO Flyout